Time;durP1;ratioP1;P1;durP2;ratioP2;P2;SDS_P1;SDS_P2;PMS_P1;PMS_P2;Temp;Humidity;BMP_temperature;BMP_pressure;BME280_temperature;BME280_humidity;BME280_pressure;Samples;Min_cycle;Max_cycle;Signal;HPM_P1;HPM_P2
2023/03/26 00:00:36;;;;;;;4.93;2.03;;;;;;;;;;5034096;28;20217;-50
2023/03/26 00:03:03;;;;;;;5.27;1.80;;;;;;;;;;5034389;28;20203;-50
2023/03/26 00:05:31;;;;;;;6.10;2.20;;;;;;;;;;5034217;28;20205;-51
2023/03/26 00:07:57;;;;;;;7.77;2.10;;;;;;;;;;5034088;28;20208;-50
2023/03/26 00:10:24;;;;;;;3.37;1.83;;;;;;;;;;5034294;28;20291;-50
2023/03/26 00:12:51;;;;;;;5.17;1.73;;;;;;;;;;5033809;28;20205;-50
2023/03/26 00:15:17;;;;;;;2.20;1.67;;;;;;;;;;5034022;28;20300;-50
2023/03/26 00:17:45;;;;;;;5.53;2.13;;;;;;;;;;5033863;28;20244;-50
2023/03/26 00:20:11;;;;;;;6.50;1.80;;;;;;;;;;5033990;28;20201;-50
2023/03/26 00:22:38;;;;;;;3.37;1.80;;;;;;;;;;5033931;28;20212;-50
2023/03/26 00:25:06;;;;;;;5.73;1.80;;;;;;;;;;5033617;28;20240;-50
2023/03/26 00:27:32;;;;;;;5.27;2.10;;;;;;;;;;5033826;28;20206;-50
2023/03/26 00:30:00;;;;;;;4.23;1.83;;;;;;;;;;5033892;28;20201;-50
2023/03/26 00:32:26;;;;;;;6.00;1.90;;;;;;;;;;5033876;28;20721;-50
2023/03/26 00:34:54;;;;;;;3.97;1.83;;;;;;;;;;5033473;28;20702;-51
2023/03/26 00:37:25;;;;;;;3.83;1.70;;;;;;;;;;5033756;28;20221;-51
2023/03/26 00:39:51;;;;;;;4.97;1.97;;;;;;;;;;5033814;28;20280;-51
2023/03/26 00:42:17;;;;;;;4.23;1.83;;;;;;;;;;5033743;28;20776;-52
2023/03/26 00:44:43;;;;;;;5.17;1.97;;;;;;;;;;5033396;28;20197;-53
2023/03/26 00:47:10;;;;;;;5.17;1.97;;;;;;;;;;5033665;28;20670;-52
2023/03/26 00:49:36;;;;;;;4.33;1.73;;;;;;;;;;5033047;28;20286;-51
2023/03/26 00:52:02;;;;;;;4.53;1.87;;;;;;;;;;5031572;28;20604;-51
2023/03/26 00:54:28;;;;;;;3.10;1.50;;;;;;;;;;5031530;28;20450;-52
2023/03/26 00:56:54;;;;;;;5.20;1.97;;;;;;;;;;5033218;28;20558;-51
2023/03/26 00:59:21;;;;;;;4.87;1.90;;;;;;;;;;5033441;28;20197;-51
2023/03/26 01:01:47;;;;;;;5.10;1.60;;;;;;;;;;5033181;28;20203;-51
2023/03/26 01:04:25;;;;;;;3.93;2.20;;;;;;;;;;5033272;28;20577;-51
2023/03/26 01:06:53;;;;;;;3.07;1.60;;;;;;;;;;5033254;28;20215;-51
2023/03/26 01:09:20;;;;;;;5.77;1.70;;;;;;;;;;5033327;28;20240;-51
2023/03/26 01:11:47;;;;;;;3.40;1.67;;;;;;;;;;5033079;28;20200;-51
2023/03/26 01:14:15;;;;;;;4.97;1.87;;;;;;;;;;5032905;28;20259;-51
2023/03/26 01:16:43;;;;;;;3.70;1.93;;;;;;;;;;5032827;28;20645;-51
2023/03/26 01:19:15;;;;;;;6.77;2.20;;;;;;;;;;5033078;28;20205;-52
2023/03/26 01:21:42;;;;;;;3.87;1.90;;;;;;;;;;5032939;28;20343;-51
2023/03/26 01:24:10;;;;;;;5.27;1.90;;;;;;;;;;5032913;28;20204;-51
2023/03/26 01:26:46;;;;;;;3.30;1.60;;;;;;;;;;5032085;28;20208;-51
2023/03/26 01:29:17;;;;;;;5.87;2.20;;;;;;;;;;5032767;28;20196;-51
2023/03/26 01:31:49;;;;;;;4.87;2.50;;;;;;;;;;5032243;28;20215;-51
2023/03/26 01:34:20;;;;;;;6.07;2.63;;;;;;;;;;5032675;28;20320;-51
2023/03/26 01:36:50;;;;;;;6.23;2.03;;;;;;;;;;5032433;28;20201;-51
2023/03/26 01:39:21;;;;;;;7.73;2.27;;;;;;;;;;5031820;28;20197;-52
2023/03/26 01:41:49;;;;;;;7.97;2.20;;;;;;;;;;5031418;28;20201;-52
2023/03/26 01:44:20;;;;;;;5.20;2.00;;;;;;;;;;5032055;28;20201;-51
2023/03/26 01:46:47;;;;;;;5.33;1.93;;;;;;;;;;5032276;28;20200;-51
2023/03/26 01:49:13;;;;;;;3.87;2.00;;;;;;;;;;5032262;28;20196;-51
2023/03/26 01:51:40;;;;;;;5.27;2.13;;;;;;;;;;5032178;28;20211;-51
2023/03/26 01:54:08;;;;;;;4.00;1.90;;;;;;;;;;5032431;28;20224;-52
2023/03/26 01:56:39;;;;;;;5.73;2.00;;;;;;;;;;5032314;28;20201;-52
2023/03/26 01:59:15;;;;;;;4.33;2.10;;;;;;;;;;5032193;28;20201;-52
2023/03/26 02:01:44;;;;;;;3.13;1.57;;;;;;;;;;5032176;28;20219;-51
2023/03/26 02:04:14;;;;;;;4.50;2.30;;;;;;;;;;5032223;28;20561;-51
2023/03/26 02:06:44;;;;;;;4.27;2.07;;;;;;;;;;5031854;28;20662;-52
2023/03/26 02:09:12;;;;;;;6.30;2.23;;;;;;;;;;5032106;28;20192;-51
2023/03/26 02:11:40;;;;;;;6.93;2.27;;;;;;;;;;5031868;28;20193;-51
2023/03/26 02:14:06;;;;;;;5.67;2.00;;;;;;;;;;5031749;28;20248;-51
2023/03/26 02:16:32;;;;;;;5.60;1.90;;;;;;;;;;5031610;28;20237;-51
2023/03/26 02:18:59;;;;;;;2.83;1.93;;;;;;;;;;5031749;28;20730;-51
2023/03/26 02:21:26;;;;;;;4.07;1.70;;;;;;;;;;5031865;28;20258;-51
2023/03/26 02:24:01;;;;;;;3.33;1.73;;;;;;;;;;5031806;28;20213;-51
2023/03/26 02:26:28;;;;;;;3.63;1.80;;;;;;;;;;5029724;28;20283;-52
2023/03/26 02:28:55;;;;;;;3.50;1.93;;;;;;;;;;5031559;28;20203;-52
2023/03/26 02:31:25;;;;;;;6.17;1.90;;;;;;;;;;5031859;28;20205;-51
2023/03/26 02:33:51;;;;;;;3.27;1.80;;;;;;;;;;5031734;28;20228;-52
2023/03/26 02:36:20;;;;;;;5.63;2.20;;;;;;;;;;5031647;28;20239;-50
2023/03/26 02:38:47;;;;;;;3.57;1.60;;;;;;;;;;5030627;28;20274;-52
2023/03/26 02:41:13;;;;;;;4.83;1.80;;;;;;;;;;5013826;28;20292;-51
2023/03/26 02:43:39;;;;;;;6.70;2.03;;;;;;;;;;5031287;28;20291;-51
2023/03/26 02:46:06;;;;;;;4.87;1.90;;;;;;;;;;5031643;28;20200;-51
2023/03/26 02:48:33;;;;;;;3.97;1.70;;;;;;;;;;5031640;28;20201;-52
2023/03/26 02:50:59;;;;;;;4.07;1.97;;;;;;;;;;5031440;28;20254;-51
2023/03/26 02:53:28;;;;;;;3.23;1.60;;;;;;;;;;5031375;28;20231;-51
2023/03/26 02:55:54;;;;;;;4.07;1.90;;;;;;;;;;5031326;28;20205;-51
2023/03/26 02:58:20;;;;;;;4.90;1.80;;;;;;;;;;5031512;28;20274;-51
2023/03/26 03:00:49;;;;;;;3.03;1.80;;;;;;;;;;5031385;28;20200;-51
2023/03/26 03:03:16;;;;;;;5.07;1.77;;;;;;;;;;5031347;28;20205;-52
2023/03/26 03:05:42;;;;;;;5.07;1.90;;;;;;;;;;5031293;28;20208;-52
2023/03/26 03:08:09;;;;;;;3.23;1.50;;;;;;;;;;5031335;28;20566;-51
2023/03/26 03:10:36;;;;;;;5.53;1.90;;;;;;;;;;5031529;28;20255;-51
2023/03/26 03:13:06;;;;;;;3.00;1.60;;;;;;;;;;5031247;28;20208;-51
2023/03/26 03:15:32;;;;;;;3.07;1.40;;;;;;;;;;5031300;28;20220;-51
2023/03/26 03:17:58;;;;;;;6.43;1.73;;;;;;;;;;5031104;28;20287;-51
2023/03/26 03:20:25;;;;;;;3.70;1.60;;;;;;;;;;5031313;28;20255;-51
2023/03/26 03:22:51;;;;;;;5.57;1.67;;;;;;;;;;5031329;28;20247;-52
2023/03/26 03:25:21;;;;;;;3.43;1.60;;;;;;;;;;5031432;28;20618;-52
2023/03/26 03:27:47;;;;;;;3.93;1.87;;;;;;;;;;5031290;28;20612;-51
2023/03/26 03:30:13;;;;;;;4.13;1.70;;;;;;;;;;5031243;28;20664;-51
2023/03/26 03:32:39;;;;;;;4.60;1.83;;;;;;;;;;5031149;28;20193;-51
2023/03/26 03:35:06;;;;;;;3.53;1.80;;;;;;;;;;5031137;28;20229;-51
2023/03/26 03:37:33;;;;;;;4.10;1.77;;;;;;;;;;5031258;28;20275;-52
2023/03/26 03:39:59;;;;;;;2.40;1.70;;;;;;;;;;5031082;28;20243;-52
2023/03/26 03:42:26;;;;;;;5.50;1.67;;;;;;;;;;5031068;28;20197;-52
2023/03/26 03:44:52;;;;;;;4.53;2.00;;;;;;;;;;5031010;28;20621;-51
2023/03/26 03:47:19;;;;;;;2.37;1.60;;;;;;;;;;5031232;28;20227;-52
2023/03/26 03:49:45;;;;;;;2.83;1.60;;;;;;;;;;5032169;28;20200;-52
2023/03/26 03:52:11;;;;;;;2.27;1.43;;;;;;;;;;5034755;28;20203;-51
2023/03/26 03:54:38;;;;;;;4.80;1.50;;;;;;;;;;5034656;28;20705;-51
2023/03/26 03:57:04;;;;;;;3.63;1.67;;;;;;;;;;5034551;28;20211;-51
2023/03/26 03:59:30;;;;;;;4.53;1.80;;;;;;;;;;5034588;28;20201;-51
2023/03/26 04:01:56;;;;;;;4.20;1.80;;;;;;;;;;5034397;28;20651;-51
2023/03/26 04:04:23;;;;;;;3.03;1.70;;;;;;;;;;5034540;28;20219;-51
2023/03/26 04:06:50;;;;;;;2.87;1.70;;;;;;;;;;5034531;28;20231;-52
2023/03/26 04:09:16;;;;;;;6.37;1.60;;;;;;;;;;5034584;28;20648;-51
2023/03/26 04:11:43;;;;;;;2.90;1.67;;;;;;;;;;5034283;28;20705;-52
2023/03/26 04:14:10;;;;;;;3.10;1.60;;;;;;;;;;5016293;28;20319;-52
2023/03/26 04:16:36;;;;;;;3.97;1.50;;;;;;;;;;5034225;28;20320;-51
2023/03/26 04:19:02;;;;;;;3.93;1.63;;;;;;;;;;5034175;28;20205;-52
2023/03/26 04:21:32;;;;;;;3.70;1.70;;;;;;;;;;5034201;28;20284;-51
2023/03/26 04:24:00;;;;;;;3.07;2.03;;;;;;;;;;5033920;28;20197;-52
2023/03/26 04:26:29;;;;;;;6.47;2.30;;;;;;;;;;5034109;28;20224;-52
2023/03/26 04:28:59;;;;;;;2.97;1.63;;;;;;;;;;5033842;28;20208;-52
2023/03/26 04:31:29;;;;;;;3.17;1.70;;;;;;;;;;5034075;28;20208;-52
2023/03/26 04:34:04;;;;;;;4.97;1.70;;;;;;;;;;5033707;28;20241;-52
2023/03/26 04:36:32;;;;;;;2.93;1.47;;;;;;;;;;5033943;28;20219;-52
2023/03/26 04:39:01;;;;;;;5.73;1.97;;;;;;;;;;5033669;28;20201;-51
2023/03/26 04:41:28;;;;;;;2.03;1.67;;;;;;;;;;5033748;28;20203;-50
2023/03/26 04:43:54;;;;;;;4.57;2.17;;;;;;;;;;5033543;28;20255;-50
2023/03/26 04:46:22;;;;;;;4.00;1.70;;;;;;;;;;5033824;28;20205;-50
2023/03/26 04:48:48;;;;;;;5.63;1.73;;;;;;;;;;5033579;28;20679;-50
2023/03/26 04:51:17;;;;;;;4.90;2.03;;;;;;;;;;5033599;28;20227;-50
2023/03/26 04:53:43;;;;;;;4.73;2.20;;;;;;;;;;5033466;28;20231;-49
2023/03/26 04:56:14;;;;;;;4.73;2.10;;;;;;;;;;5033345;28;20214;-49
2023/03/26 04:58:40;;;;;;;5.23;2.07;;;;;;;;;;5033278;28;20621;-50
2023/03/26 05:01:06;;;;;;;2.77;1.80;;;;;;;;;;5032491;28;20206;-50
2023/03/26 05:03:34;;;;;;;6.27;2.07;;;;;;;;;;5033473;28;20204;-51
2023/03/26 05:06:00;;;;;;;4.70;2.10;;;;;;;;;;5033270;28;20255;-50
2023/03/26 05:08:27;;;;;;;6.03;2.30;;;;;;;;;;5033279;28;20292;-50
2023/03/26 05:10:54;;;;;;;4.90;1.87;;;;;;;;;;5033136;28;20204;-50
2023/03/26 05:13:20;;;;;;;3.93;2.30;;;;;;;;;;5033223;28;20221;-50
2023/03/26 05:15:46;;;;;;;3.27;2.00;;;;;;;;;;5032812;28;20303;-50
2023/03/26 05:18:12;;;;;;;4.00;2.10;;;;;;;;;;5033094;28;20197;-51
2023/03/26 05:20:39;;;;;;;6.07;2.17;;;;;;;;;;5033082;28;20197;-51
2023/03/26 05:23:06;;;;;;;4.17;2.07;;;;;;;;;;5032995;28;20232;-50
2023/03/26 05:25:33;;;;;;;4.43;2.40;;;;;;;;;;5033030;28;20224;-50
2023/03/26 05:27:59;;;;;;;7.60;2.43;;;;;;;;;;5032728;28;20213;-50
2023/03/26 05:30:26;;;;;;;6.97;2.47;;;;;;;;;;5032730;28;20690;-51
2023/03/26 05:32:52;;;;;;;4.83;2.37;;;;;;;;;;5032827;28;20201;-51
2023/03/26 05:35:18;;;;;;;4.37;2.00;;;;;;;;;;5032720;28;20399;-49
2023/03/26 05:37:46;;;;;;;6.97;2.30;;;;;;;;;;5032640;28;20204;-50
2023/03/26 05:40:15;;;;;;;4.80;2.20;;;;;;;;;;5032512;28;20236;-50
2023/03/26 05:42:41;;;;;;;6.47;2.47;;;;;;;;;;5032559;28;20714;-49
2023/03/26 05:45:08;;;;;;;3.43;1.93;;;;;;;;;;5032363;28;20270;-50
2023/03/26 05:47:34;;;;;;;3.20;2.00;;;;;;;;;;5032606;28;20205;-51
2023/03/26 05:50:00;;;;;;;4.00;2.00;;;;;;;;;;5032321;28;20205;-51
2023/03/26 05:52:26;;;;;;;7.87;2.20;;;;;;;;;;5032493;28;20201;-51
2023/03/26 05:54:54;;;;;;;7.60;2.60;;;;;;;;;;5032369;28;20311;-50
2023/03/26 05:57:21;;;;;;;5.47;2.53;;;;;;;;;;5032385;28;20236;-50
2023/03/26 05:59:47;;;;;;;3.63;2.27;;;;;;;;;;5032358;28;20216;-50
2023/03/26 06:02:13;;;;;;;4.40;2.37;;;;;;;;;;5032142;28;20221;-50
2023/03/26 06:04:39;;;;;;;4.93;2.70;;;;;;;;;;5032143;28;20193;-50
2023/03/26 06:07:08;;;;;;;6.43;2.60;;;;;;;;;;5032196;28;20205;-51
2023/03/26 06:09:37;;;;;;;4.47;2.60;;;;;;;;;;5032298;28;20196;-51
2023/03/26 06:12:05;;;;;;;5.47;2.47;;;;;;;;;;5031703;28;20201;-50
2023/03/26 06:14:31;;;;;;;4.70;2.23;;;;;;;;;;5031922;28;20233;-50
2023/03/26 06:16:57;;;;;;;7.27;2.60;;;;;;;;;;5031727;28;20764;-51
2023/03/26 06:19:23;;;;;;;8.33;2.80;;;;;;;;;;5031916;28;20196;-51
2023/03/26 06:21:49;;;;;;;6.50;2.67;;;;;;;;;;5032137;28;20200;-51
2023/03/26 06:24:18;;;;;;;7.83;2.60;;;;;;;;;;5031746;28;20200;-51
2023/03/26 06:26:45;;;;;;;4.43;2.50;;;;;;;;;;5031835;28;20204;-50
2023/03/26 06:29:12;;;;;;;5.07;2.67;;;;;;;;;;5031757;28;20204;-51
2023/03/26 06:31:39;;;;;;;3.83;2.30;;;;;;;;;;5031691;28;20555;-50
2023/03/26 06:34:05;;;;;;;8.03;2.93;;;;;;;;;;5031734;28;20278;-49
2023/03/26 06:36:31;;;;;;;5.03;2.67;;;;;;;;;;5031884;28;20200;-50
2023/03/26 06:38:57;;;;;;;5.53;2.43;;;;;;;;;;5031697;28;20579;-51
2023/03/26 06:41:23;;;;;;;5.23;2.43;;;;;;;;;;5031542;28;20203;-50
2023/03/26 06:43:49;;;;;;;4.60;2.10;;;;;;;;;;5031821;28;20201;-51
2023/03/26 06:46:17;;;;;;;5.70;2.20;;;;;;;;;;5031451;28;20208;-51
2023/03/26 06:48:43;;;;;;;7.97;2.40;;;;;;;;;;5031614;28;20694;-52
2023/03/26 06:51:09;;;;;;;6.30;2.70;;;;;;;;;;5031487;28;20291;-51
2023/03/26 06:53:35;;;;;;;4.43;2.50;;;;;;;;;;5031648;28;20229;-51
2023/03/26 06:56:02;;;;;;;7.47;2.30;;;;;;;;;;5031456;28;20223;-51
2023/03/26 06:58:28;;;;;;;3.50;2.20;;;;;;;;;;5031520;28;20199;-52
2023/03/26 07:00:54;;;;;;;8.80;2.47;;;;;;;;;;5031442;28;20283;-52
2023/03/26 07:03:22;;;;;;;4.57;2.23;;;;;;;;;;5031335;28;20201;-52
2023/03/26 07:05:48;;;;;;;4.60;2.07;;;;;;;;;;5031261;28;20201;-52
2023/03/26 07:08:14;;;;;;;5.20;2.93;;;;;;;;;;5031331;28;20751;-52
2023/03/26 07:10:41;;;;;;;5.70;2.40;;;;;;;;;;5031422;28;20283;-51
2023/03/26 07:13:07;;;;;;;7.67;2.50;;;;;;;;;;5031104;28;20567;-52
2023/03/26 07:15:33;;;;;;;6.03;2.57;;;;;;;;;;5031452;28;20223;-51
2023/03/26 07:17:59;;;;;;;7.97;2.80;;;;;;;;;;5030975;28;20244;-52
2023/03/26 07:20:26;;;;;;;4.90;2.50;;;;;;;;;;5031288;28;20196;-51
2023/03/26 07:22:53;;;;;;;4.33;2.30;;;;;;;;;;5031294;28;20205;-51
2023/03/26 07:25:20;;;;;;;5.63;2.23;;;;;;;;;;5033471;28;20292;-51
2023/03/26 07:27:49;;;;;;;4.27;2.00;;;;;;;;;;5035029;28;20572;-51
2023/03/26 07:30:16;;;;;;;4.07;2.20;;;;;;;;;;5035110;28;20217;-53
2023/03/26 07:32:47;;;;;;;9.00;2.70;;;;;;;;;;5034956;28;20196;-53
2023/03/26 07:35:15;;;;;;;3.90;2.30;;;;;;;;;;5034897;28;20830;-55
2023/03/26 07:37:49;;;;;;;5.53;2.80;;;;;;;;;;5035013;28;20243;-54
2023/03/26 07:40:19;;;;;;;5.07;2.17;;;;;;;;;;5035212;28;20651;-53
2023/03/26 07:42:53;;;;;;;5.70;2.50;;;;;;;;;;5034787;28;20224;-54
2023/03/26 07:45:22;;;;;;;9.07;2.60;;;;;;;;;;5034359;28;20232;-54
2023/03/26 07:47:48;;;;;;;6.47;2.40;;;;;;;;;;5033115;28;20197;-54
2023/03/26 07:50:15;;;;;;;10.50;4.60;;;;;;;;;;5033854;28;20235;-55
2023/03/26 07:52:41;;;;;;;7.77;4.20;;;;;;;;;;5034518;28;20357;-54
2023/03/26 07:55:11;;;;;;;7.10;2.90;;;;;;;;;;5034375;28;20224;-54
2023/03/26 07:57:44;;;;;;;9.43;2.80;;;;;;;;;;5034421;28;20702;-55
2023/03/26 08:00:14;;;;;;;8.07;2.47;;;;;;;;;;5034262;28;20254;-54
2023/03/26 08:02:46;;;;;;;9.93;2.73;;;;;;;;;;5034310;28;20201;-54
2023/03/26 08:05:19;;;;;;;6.63;2.40;;;;;;;;;;5034216;28;20923;-54
2023/03/26 08:07:52;;;;;;;8.40;3.20;;;;;;;;;;5034369;28;20205;-54
2023/03/26 08:10:22;;;;;;;6.87;2.70;;;;;;;;;;5034209;28;20204;-53
2023/03/26 08:12:52;;;;;;;4.67;2.43;;;;;;;;;;5034329;28;20200;-55
2023/03/26 08:15:24;;;;;;;5.57;2.33;;;;;;;;;;5034007;28;20610;-55
2023/03/26 08:17:52;;;;;;;4.90;2.47;;;;;;;;;;5034119;28;20236;-54
2023/03/26 08:20:23;;;;;;;8.23;2.60;;;;;;;;;;5033889;28;20644;-54
2023/03/26 08:22:52;;;;;;;16.00;12.00;;;;;;;;;;5034160;28;20211;-53
2023/03/26 08:25:26;;;;;;;6.10;2.60;;;;;;;;;;5033934;28;20236;-54
2023/03/26 08:28:10;;;;;;;6.17;2.33;;;;;;;;;;5033950;28;20201;-54
2023/03/26 08:30:37;;;;;;;10.83;2.90;;;;;;;;;;5033450;28;20296;-55
2023/03/26 08:33:10;;;;;;;7.60;3.03;;;;;;;;;;5033833;28;20207;-54
2023/03/26 08:35:41;;;;;;;7.13;2.53;;;;;;;;;;5033538;28;20208;-54
2023/03/26 08:38:07;;;;;;;4.90;2.50;;;;;;;;;;5033325;28;20201;-53
2023/03/26 08:40:51;;;;;;;7.57;2.50;;;;;;;;;;5033325;28;20189;-55
2023/03/26 08:43:30;;;;;;;7.50;2.87;;;;;;;;;;5033076;28;20205;-55
2023/03/26 08:46:05;;;;;;;8.57;2.60;;;;;;;;;;5033035;28;20217;-55
2023/03/26 08:48:50;;;;;;;6.10;2.47;;;;;;;;;;5033113;28;20188;-55
2023/03/26 08:51:26;;;;;;;4.93;2.47;;;;;;;;;;5033035;28;20189;-55
2023/03/26 08:54:02;;;;;;;6.50;2.50;;;;;;;;;;5032953;28;20307;-54
2023/03/26 08:56:34;;;;;;;10.33;3.00;;;;;;;;;;5032782;28;20306;-55
2023/03/26 08:59:11;;;;;;;6.30;2.30;;;;;;;;;;5032864;28;20220;-54
2023/03/26 09:01:48;;;;;;;5.23;2.53;;;;;;;;;;5033118;28;20224;-55
2023/03/26 09:04:27;;;;;;;7.07;2.43;;;;;;;;;;5033022;28;20250;-55
2023/03/26 09:07:06;;;;;;;11.53;3.07;;;;;;;;;;5032928;28;20197;-54
2023/03/26 09:09:53;;;;;;;7.77;2.47;;;;;;;;;;5033048;28;20205;-55
2023/03/26 09:12:39;;;;;;;8.87;2.40;;;;;;;;;;5032790;28;20204;-55
2023/03/26 09:15:21;;;;;;;6.70;2.30;;;;;;;;;;5031984;28;20220;-54
2023/03/26 09:18:01;;;;;;;5.53;2.53;;;;;;;;;;5032659;28;20229;-55
2023/03/26 09:20:43;;;;;;;7.30;2.83;;;;;;;;;;5032667;28;20280;-54
2023/03/26 09:23:21;;;;;;;7.10;4.20;;;;;;;;;;5032588;28;20280;-55
2023/03/26 09:26:03;;;;;;;6.23;2.53;;;;;;;;;;5032631;28;20208;-54
2023/03/26 09:28:49;;;;;;;7.57;2.87;;;;;;;;;;5032282;28;20207;-54
2023/03/26 09:31:23;;;;;;;5.43;2.57;;;;;;;;;;5031392;28;20232;-54
2023/03/26 09:33:58;;;;;;;6.67;2.80;;;;;;;;;;5031463;28;20263;-54
2023/03/26 09:36:32;;;;;;;8.10;2.80;;;;;;;;;;5013237;28;20197;-54
2023/03/26 09:39:02;;;;;;;6.87;2.77;;;;;;;;;;5031511;28;20203;-54
2023/03/26 09:41:35;;;;;;;8.30;2.80;;;;;;;;;;5031413;28;20228;-54
2023/03/26 09:44:12;;;;;;;5.60;2.93;;;;;;;;;;5032266;28;20212;-55
2023/03/26 09:46:44;;;;;;;6.80;3.47;;;;;;;;;;5031610;28;20258;-55
2023/03/26 09:49:28;;;;;;;9.00;3.10;;;;;;;;;;5031500;28;20211;-54
2023/03/26 09:52:12;;;;;;;5.70;3.17;;;;;;;;;;5031800;28;20200;-55
2023/03/26 09:54:47;;;;;;;9.33;2.90;;;;;;;;;;5031799;28;20232;-54
2023/03/26 09:57:18;;;;;;;8.30;2.93;;;;;;;;;;5032036;28;20200;-54
2023/03/26 09:59:54;;;;;;;5.10;3.10;;;;;;;;;;5032279;28;20201;-55
2023/03/26 10:02:30;;;;;;;7.70;3.27;;;;;;;;;;5032162;28;20209;-55
2023/03/26 10:05:03;;;;;;;7.17;2.90;;;;;;;;;;5032186;28;20272;-55
2023/03/26 10:07:39;;;;;;;9.07;3.17;;;;;;;;;;5032078;28;20694;-58
2023/03/26 10:10:11;;;;;;;9.57;3.23;;;;;;;;;;5032015;28;20205;-55
2023/03/26 10:12:39;;;;;;;8.53;2.80;;;;;;;;;;5031916;28;20635;-55
2023/03/26 10:15:13;;;;;;;15.13;10.37;;;;;;;;;;5031851;28;20627;-55
2023/03/26 10:17:45;;;;;;;7.70;3.57;;;;;;;;;;5031688;28;20251;-55
2023/03/26 10:20:31;;;;;;;12.43;3.10;;;;;;;;;;5031548;28;20288;-54
2023/03/26 10:23:04;;;;;;;9.17;3.50;;;;;;;;;;5031712;28;20212;-54
2023/03/26 10:25:36;;;;;;;9.77;3.67;;;;;;;;;;5031660;28;20285;-55
2023/03/26 10:28:08;;;;;;;9.77;3.50;;;;;;;;;;5031665;28;20207;-55
2023/03/26 10:30:44;;;;;;;6.53;2.70;;;;;;;;;;5031806;28;20585;-55
2023/03/26 10:33:15;;;;;;;7.50;2.90;;;;;;;;;;5031707;28;20235;-54
2023/03/26 10:35:46;;;;;;;7.97;2.77;;;;;;;;;;5031457;28;20228;-55
2023/03/26 10:38:15;;;;;;;7.23;2.93;;;;;;;;;;5031449;28;20670;-54
2023/03/26 10:40:44;;;;;;;8.20;2.40;;;;;;;;;;5031487;28;20204;-56
2023/03/26 10:43:29;;;;;;;10.00;2.67;;;;;;;;;;5031541;28;20197;-55
2023/03/26 10:46:03;;;;;;;12.53;3.20;;;;;;;;;;5031589;28;20212;-54
2023/03/26 10:48:50;;;;;;;10.20;2.83;;;;;;;;;;5031339;28;20205;-54
2023/03/26 10:51:23;;;;;;;7.57;3.03;;;;;;;;;;5031402;28;20224;-54
2023/03/26 10:53:51;;;;;;;10.90;3.20;;;;;;;;;;5031309;28;20225;-55
2023/03/26 10:56:21;;;;;;;8.00;2.57;;;;;;;;;;5031334;28;20201;-55
2023/03/26 10:58:47;;;;;;;6.10;2.80;;;;;;;;;;5031451;28;20201;-53
2023/03/26 11:01:19;;;;;;;9.87;3.03;;;;;;;;;;5035226;28;20196;-55
2023/03/26 11:03:53;;;;;;;10.00;3.73;;;;;;;;;;5035683;28;20201;-54
2023/03/26 11:06:26;;;;;;;14.47;6.17;;;;;;;;;;5035454;28;20252;-55
2023/03/26 11:08:56;;;;;;;8.23;2.80;;;;;;;;;;5035468;28;20207;-54
2023/03/26 11:11:24;;;;;;;9.90;3.03;;;;;;;;;;5035166;28;20204;-55
2023/03/26 11:13:56;;;;;;;8.87;2.90;;;;;;;;;;5035317;28;20220;-53
2023/03/26 11:16:27;;;;;;;8.90;2.67;;;;;;;;;;5035037;28;20237;-55
2023/03/26 11:18:57;;;;;;;12.17;3.27;;;;;;;;;;5035220;28;20235;-55
2023/03/26 11:21:25;;;;;;;6.93;3.27;;;;;;;;;;5035002;28;20200;-55
2023/03/26 11:23:57;;;;;;;7.83;3.23;;;;;;;;;;5035255;28;20197;-55
2023/03/26 11:26:37;;;;;;;12.80;3.47;;;;;;;;;;5034944;28;20254;-54
2023/03/26 11:29:10;;;;;;;10.07;3.30;;;;;;;;;;5034985;28;20218;-54
2023/03/26 11:31:43;;;;;;;13.90;7.10;;;;;;;;;;5033148;28;20201;-56
2023/03/26 11:34:11;;;;;;;9.80;3.03;;;;;;;;;;5032974;28;20228;-55
2023/03/26 11:36:41;;;;;;;7.40;3.20;;;;;;;;;;5034743;28;20659;-54
2023/03/26 11:39:12;;;;;;;10.97;3.17;;;;;;;;;;5034553;28;20267;-54
2023/03/26 11:41:38;;;;;;;11.40;3.23;;;;;;;;;;5034604;28;20212;-55
2023/03/26 11:44:08;;;;;;;6.40;2.60;;;;;;;;;;5032918;28;20200;-54
2023/03/26 11:46:36;;;;;;;11.97;3.40;;;;;;;;;;5034438;28;20208;-56
2023/03/26 11:49:08;;;;;;;7.87;3.07;;;;;;;;;;5034359;28;20287;-55
2023/03/26 11:51:35;;;;;;;11.27;3.77;;;;;;;;;;5034416;28;20213;-54
2023/03/26 11:54:02;;;;;;;7.37;2.90;;;;;;;;;;5034232;28;20221;-54
2023/03/26 11:56:30;;;;;;;12.27;3.50;;;;;;;;;;5034127;28;20228;-54
2023/03/26 11:58:59;;;;;;;6.57;3.07;;;;;;;;;;5034066;28;20201;-54
2023/03/26 12:01:28;;;;;;;8.57;3.00;;;;;;;;;;5033954;28;20764;-55
2023/03/26 12:04:02;;;;;;;9.23;3.10;;;;;;;;;;5034044;28;20197;-55
2023/03/26 12:06:31;;;;;;;6.80;3.00;;;;;;;;;;5033976;28;20707;-54
2023/03/26 12:08:57;;;;;;;6.63;3.00;;;;;;;;;;5033985;28;20189;-55
2023/03/26 12:11:26;;;;;;;7.20;2.80;;;;;;;;;;5033023;28;20658;-55
2023/03/26 12:13:55;;;;;;;6.47;3.20;;;;;;;;;;5033876;28;20220;-55
2023/03/26 12:16:21;;;;;;;10.57;3.70;;;;;;;;;;5033797;28;20244;-54
2023/03/26 12:18:57;;;;;;;7.07;2.50;;;;;;;;;;5033972;28;20193;-55
2023/03/26 12:21:24;;;;;;;9.77;3.63;;;;;;;;;;5033611;28;20214;-54
2023/03/26 12:23:57;;;;;;;8.80;3.47;;;;;;;;;;5033798;28;20258;-56
2023/03/26 12:26:36;;;;;;;6.67;2.87;;;;;;;;;;5033687;28;20204;-55
2023/03/26 12:29:10;;;;;;;6.63;3.03;;;;;;;;;;5033710;28;20188;-55
2023/03/26 12:31:51;;;;;;;6.60;2.80;;;;;;;;;;5033633;28;20201;-55
2023/03/26 12:34:18;;;;;;;8.70;3.03;;;;;;;;;;5033436;28;20225;-55
2023/03/26 12:36:52;;;;;;;8.47;2.67;;;;;;;;;;5033423;28;20568;-55
2023/03/26 12:39:30;;;;;;;8.23;2.50;;;;;;;;;;5033349;28;20224;-55
2023/03/26 12:41:58;;;;;;;6.90;2.37;;;;;;;;;;5033438;28;20211;-54
2023/03/26 12:44:26;;;;;;;7.40;2.80;;;;;;;;;;5033195;28;20200;-53
2023/03/26 12:47:06;;;;;;;7.17;2.87;;;;;;;;;;5033337;28;20682;-53
2023/03/26 12:49:32;;;;;;;8.30;2.50;;;;;;;;;;5033112;28;20200;-52
2023/03/26 12:52:04;;;;;;;8.80;2.70;;;;;;;;;;5033196;28;20197;-53
2023/03/26 12:54:37;;;;;;;7.20;2.80;;;;;;;;;;5032940;28;20580;-54
2023/03/26 12:57:09;;;;;;;8.00;2.67;;;;;;;;;;5033248;28;20204;-55
2023/03/26 12:59:43;;;;;;;6.07;2.67;;;;;;;;;;5033230;28;20205;-53
2023/03/26 13:02:23;;;;;;;7.57;2.43;;;;;;;;;;5033098;28;20619;-54
2023/03/26 13:04:55;;;;;;;6.90;2.80;;;;;;;;;;5033240;28;20209;-54
2023/03/26 13:07:24;;;;;;;8.20;3.00;;;;;;;;;;5032829;28;20323;-54
2023/03/26 13:10:00;;;;;;;9.13;2.57;;;;;;;;;;5032837;28;20193;-54
2023/03/26 13:12:32;;;;;;;8.37;2.70;;;;;;;;;;5030801;28;20275;-52
2023/03/26 13:15:06;;;;;;;4.80;2.33;;;;;;;;;;5032441;28;20228;-55
2023/03/26 13:17:35;;;;;;;9.13;2.97;;;;;;;;;;5031856;28;20236;-53
2023/03/26 13:20:11;;;;;;;5.10;2.30;;;;;;;;;;5032216;28;20197;-52
2023/03/26 13:22:41;;;;;;;9.13;2.70;;;;;;;;;;5031382;28;20197;-52
2023/03/26 13:25:15;;;;;;;6.13;2.47;;;;;;;;;;5032178;28;20193;-52
2023/03/26 13:27:47;;;;;;;8.53;2.80;;;;;;;;;;5031873;28;20213;-52
2023/03/26 13:30:18;;;;;;;7.87;3.27;;;;;;;;;;5031957;28;20258;-53
2023/03/26 13:32:49;;;;;;;8.23;2.47;;;;;;;;;;5031863;28;20204;-53
2023/03/26 13:35:23;;;;;;;6.87;2.73;;;;;;;;;;5031737;28;20595;-53
2023/03/26 13:37:53;;;;;;;8.40;2.77;;;;;;;;;;5032182;28;20655;-53
2023/03/26 13:40:24;;;;;;;6.07;2.23;;;;;;;;;;5031856;28;20626;-53
2023/03/26 13:42:58;;;;;;;5.57;2.70;;;;;;;;;;5031976;28;20292;-53
2023/03/26 13:45:30;;;;;;;7.13;2.47;;;;;;;;;;5031618;28;20280;-53
2023/03/26 13:47:57;;;;;;;5.87;2.50;;;;;;;;;;5031636;28;20197;-52
2023/03/26 13:50:25;;;;;;;9.40;3.57;;;;;;;;;;5031474;28;20208;-52
2023/03/26 13:52:54;;;;;;;8.30;2.90;;;;;;;;;;5031599;28;20204;-53
2023/03/26 13:55:24;;;;;;;11.60;3.20;;;;;;;;;;5031573;28;20236;-53
2023/03/26 13:57:54;;;;;;;9.60;3.00;;;;;;;;;;5031587;28;20207;-53
2023/03/26 14:00:22;;;;;;;8.87;2.80;;;;;;;;;;5031850;28;20207;-53
2023/03/26 14:02:52;;;;;;;6.57;3.00;;;;;;;;;;5031506;28;20300;-53
2023/03/26 14:05:22;;;;;;;7.13;2.80;;;;;;;;;;5029551;28;20212;-54
2023/03/26 14:07:51;;;;;;;7.03;2.70;;;;;;;;;;5031272;28;20609;-52
2023/03/26 14:10:19;;;;;;;9.93;2.70;;;;;;;;;;5031508;28;20240;-53
2023/03/26 14:12:52;;;;;;;6.97;2.80;;;;;;;;;;5030958;28;20292;-53
2023/03/26 14:15:21;;;;;;;10.10;2.60;;;;;;;;;;5030966;28;20260;-53
2023/03/26 14:17:49;;;;;;;9.03;2.97;;;;;;;;;;5030746;28;20249;-52
2023/03/26 14:20:33;;;;;;;6.83;2.63;;;;;;;;;;5030961;28;20567;-52
2023/03/26 14:23:16;;;;;;;10.43;2.70;;;;;;;;;;5030930;28;20200;-52
2023/03/26 14:25:50;;;;;;;8.23;2.80;;;;;;;;;;5030605;28;20197;-52
2023/03/26 14:28:31;;;;;;;7.37;2.83;;;;;;;;;;5030629;28;20706;-52
2023/03/26 14:31:02;;;;;;;8.20;3.17;;;;;;;;;;5031013;28;20204;-52
2023/03/26 14:33:45;;;;;;;10.23;3.03;;;;;;;;;;5030460;28;20203;-52
2023/03/26 14:36:15;;;;;;;9.40;2.87;;;;;;;;;;5030578;28;20366;-53
2023/03/26 14:39:00;;;;;;;9.37;3.10;;;;;;;;;;5030544;28;20221;-53
2023/03/26 14:41:29;;;;;;;8.03;2.93;;;;;;;;;;4981138;28;20424;-54
2023/03/26 14:44:25;;;;;;;12.97;3.53;;;;;;;;;;5030594;28;20235;-53
2023/03/26 14:46:56;;;;;;;7.43;2.70;;;;;;;;;;5030630;28;20209;-52
2023/03/26 14:49:31;;;;;;;7.73;2.50;;;;;;;;;;5030639;28;20607;-53
2023/03/26 14:52:08;;;;;;;8.77;3.43;;;;;;;;;;5030511;28;20280;-53
2023/03/26 14:54:37;;;;;;;9.07;2.80;;;;;;;;;;5030335;28;20752;-53
2023/03/26 14:57:11;;;;;;;8.30;3.17;;;;;;;;;;5030569;28;20196;-53
2023/03/26 14:59:56;;;;;;;8.63;2.73;;;;;;;;;;5030275;28;20208;-53